Time,TemperatureF,DewpointF,PressureIn,WindDirection,WindDirectionDegrees,WindSpeedMPH,WindSpeedGustMPH,Humidity,HourlyPrecipIn,Conditions,Clouds,dailyrainin,SolarRadiationWatts/m^2,SoftwareType,DateUTC
2013-05-26 00:03:00,55.0,30.0,-100.00,NW,305,7.0,14.0,38,0.00,,,0.00,0.000000,,2013-05-26 04:03:00,
2013-05-26 00:12:00,55.0,30.0,-100.00,NW,305,7.0,14.0,38,0.00,,,0.00,0.000000,,2013-05-26 04:12:00,
2013-05-26 00:33:00,54.0,31.0,-100.00,WNW,301,7.0,16.0,42,0.00,,,0.00,0.000000,,2013-05-26 04:33:00,
2013-05-26 00:43:00,54.0,31.0,-100.00,WNW,301,7.0,16.0,42,0.00,,,0.00,0.000000,,2013-05-26 04:43:00,
2013-05-26 00:52:00,54.0,31.0,-100.00,WNW,301,7.0,16.0,42,0.00,,,0.00,0.000000,,2013-05-26 04:52:00,
2013-05-26 01:02:00,54.0,31.0,-100.00,WNW,301,7.0,16.0,42,0.00,,,0.00,0.000000,,2013-05-26 05:02:00,
2013-05-26 01:12:00,54.0,31.0,-100.00,WNW,301,7.0,16.0,42,0.00,,,0.00,0.000000,,2013-05-26 05:12:00,
2013-05-26 01:32:00,51.0,31.0,-100.00,NNW,333,3.0,12.0,47,0.00,,,0.00,0.000000,,2013-05-26 05:32:00,
2013-05-26 01:42:00,51.0,31.0,-100.00,NNW,333,3.0,12.0,47,0.00,,,0.00,0.000000,,2013-05-26 05:42:00,
2013-05-26 01:52:00,51.0,31.0,-100.00,NNW,333,3.0,12.0,47,0.00,,,0.00,0.000000,,2013-05-26 05:52:00,
2013-05-26 02:01:00,51.0,31.0,-100.00,NNW,333,3.0,12.0,47,0.00,,,0.00,0.000000,,2013-05-26 06:01:00,
2013-05-26 02:12:00,51.0,31.0,-100.00,NNW,333,3.0,12.0,47,0.00,,,0.00,0.000000,,2013-05-26 06:12:00,
2013-05-26 02:32:00,50.0,35.0,-100.00,WNW,303,5.0,8.0,56,0.00,,,0.00,0.000000,,2013-05-26 06:32:00,
2013-05-26 02:42:00,50.0,35.0,-100.00,WNW,303,5.0,8.0,56,0.00,,,0.00,0.000000,,2013-05-26 06:42:00,
2013-05-26 02:52:00,50.0,35.0,-100.00,WNW,303,5.0,8.0,56,0.00,,,0.00,0.000000,,2013-05-26 06:52:00,
2013-05-26 03:02:00,50.0,35.0,-100.00,WNW,303,5.0,8.0,56,0.00,,,0.00,0.000000,,2013-05-26 07:02:00,
2013-05-26 03:11:00,50.0,35.0,-100.00,WNW,303,5.0,8.0,56,0.00,,,0.00,0.000000,,2013-05-26 07:11:00,
2013-05-26 03:32:00,50.0,33.0,-100.00,WNW,282,5.0,8.0,51,0.00,,,0.00,0.000000,,2013-05-26 07:32:00,
2013-05-26 03:42:00,50.0,33.0,-100.00,WNW,282,5.0,8.0,51,0.00,,,0.00,0.000000,,2013-05-26 07:42:00,
2013-05-26 03:52:00,50.0,33.0,-100.00,WNW,282,5.0,8.0,51,0.00,,,0.00,0.000000,,2013-05-26 07:52:00,
2013-05-26 04:01:00,50.0,33.0,-100.00,WNW,282,5.0,8.0,51,0.00,,,0.00,0.000000,,2013-05-26 08:01:00,
2013-05-26 04:12:00,50.0,33.0,-100.00,WNW,282,5.0,8.0,51,0.00,,,0.00,0.000000,,2013-05-26 08:12:00,
2013-05-26 04:32:00,49.0,32.0,-100.00,WNW,287,6.0,9.0,52,0.00,,,0.00,0.000000,,2013-05-26 08:32:00,
2013-05-26 04:42:00,49.0,32.0,-100.00,WNW,287,6.0,9.0,52,0.00,,,0.00,0.000000,,2013-05-26 08:42:00,
2013-05-26 04:53:00,49.0,32.0,-100.00,WNW,287,6.0,9.0,52,0.00,,,0.00,0.000000,,2013-05-26 08:53:00,
2013-05-26 05:01:00,49.0,32.0,-100.00,WNW,287,6.0,9.0,52,0.00,,,0.00,0.000000,,2013-05-26 09:01:00,
2013-05-26 05:11:00,49.0,32.0,-100.00,WNW,287,6.0,9.0,52,0.00,,,0.00,0.000000,,2013-05-26 09:11:00,
2013-05-26 05:34:00,49.0,32.0,-100.00,WNW,290,6.0,13.0,52,0.00,,,0.00,0.000000,,2013-05-26 09:34:00,
2013-05-26 05:43:00,49.0,32.0,-100.00,WNW,290,6.0,13.0,52,0.00,,,0.00,0.000000,,2013-05-26 09:43:00,
2013-05-26 05:53:00,49.0,32.0,-100.00,WNW,290,6.0,13.0,52,0.00,,,0.00,0.000000,,2013-05-26 09:53:00,
2013-05-26 06:03:00,49.0,32.0,-100.00,WNW,290,6.0,13.0,52,0.00,,,0.00,0.000000,,2013-05-26 10:03:00,
2013-05-26 06:12:00,49.0,32.0,-100.00,WNW,290,6.0,13.0,52,0.00,,,0.00,0.000000,,2013-05-26 10:12:00,
2013-05-26 06:33:00,49.0,32.0,-100.00,WNW,286,8.0,12.0,51,0.00,,,0.00,8.000000,,2013-05-26 10:33:00,
2013-05-26 06:42:00,49.0,32.0,-100.00,WNW,286,8.0,12.0,51,0.00,,,0.00,8.000000,,2013-05-26 10:42:00,
2013-05-26 06:52:00,49.0,32.0,-100.00,WNW,286,8.0,12.0,51,0.00,,,0.00,8.000000,,2013-05-26 10:52:00,
2013-05-26 07:03:00,49.0,32.0,-100.00,WNW,286,8.0,12.0,51,0.00,,,0.00,8.000000,,2013-05-26 11:03:00,
2013-05-26 07:11:00,49.0,32.0,-100.00,WNW,286,8.0,12.0,51,0.00,,,0.00,8.000000,,2013-05-26 11:11:00,
2013-05-26 07:32:00,53.0,33.0,-100.00,WNW,299,5.0,12.0,47,0.00,,,0.00,110.000000,,2013-05-26 11:32:00,
2013-05-26 07:42:00,53.0,33.0,-100.00,WNW,299,5.0,12.0,47,0.00,,,0.00,110.000000,,2013-05-26 11:42:00,
2013-05-26 07:52:00,53.0,33.0,-100.00,WNW,299,5.0,12.0,47,0.00,,,0.00,110.000000,,2013-05-26 11:52:00,
2013-05-26 08:02:00,53.0,33.0,-100.00,WNW,299,5.0,12.0,47,0.00,,,0.00,110.000000,,2013-05-26 12:02:00,
2013-05-26 08:12:00,53.0,33.0,-100.00,WNW,299,5.0,12.0,47,0.00,,,0.00,110.000000,,2013-05-26 12:12:00,
2013-05-26 08:32:00,57.0,35.0,-100.00,WNW,303,5.0,10.0,43,0.00,,,0.00,285.000000,,2013-05-26 12:32:00,
2013-05-26 08:42:00,57.0,35.0,-100.00,WNW,303,5.0,10.0,43,0.00,,,0.00,285.000000,,2013-05-26 12:42:00,
2013-05-26 08:52:00,57.0,35.0,-100.00,WNW,303,5.0,10.0,43,0.00,,,0.00,285.000000,,2013-05-26 12:52:00,
2013-05-26 09:02:00,57.0,35.0,-100.00,WNW,303,5.0,10.0,43,0.00,,,0.00,285.000000,,2013-05-26 13:02:00,
2013-05-26 09:11:00,57.0,35.0,-100.00,WNW,303,5.0,10.0,43,0.00,,,0.00,285.000000,,2013-05-26 13:11:00,
2013-05-26 09:32:00,58.0,34.0,-100.00,North,5,6.0,9.0,41,0.00,,,0.00,467.000000,,2013-05-26 13:32:00,
2013-05-26 09:42:00,58.0,34.0,-100.00,North,5,6.0,9.0,41,0.00,,,0.00,467.000000,,2013-05-26 13:42:00,
2013-05-26 09:52:00,58.0,34.0,-100.00,North,5,6.0,9.0,41,0.00,,,0.00,467.000000,,2013-05-26 13:52:00,
2013-05-26 10:02:00,58.0,34.0,-100.00,North,5,6.0,9.0,41,0.00,,,0.00,467.000000,,2013-05-26 14:02:00,
2013-05-26 10:11:00,58.0,34.0,-100.00,North,5,6.0,9.0,41,0.00,,,0.00,467.000000,,2013-05-26 14:11:00,
2013-05-26 10:32:00,60.0,36.0,-100.00,NNW,336,9.0,16.0,40,0.00,,,0.00,647.000000,,2013-05-26 14:32:00,
2013-05-26 10:42:00,60.0,36.0,-100.00,NNW,336,9.0,16.0,40,0.00,,,0.00,647.000000,,2013-05-26 14:42:00,
2013-05-26 10:52:00,60.0,36.0,-100.00,NNW,336,9.0,16.0,40,0.00,,,0.00,647.000000,,2013-05-26 14:52:00,
2013-05-26 11:02:00,60.0,36.0,-100.00,NNW,336,9.0,16.0,40,0.00,,,0.00,647.000000,,2013-05-26 15:02:00,
2013-05-26 11:12:00,60.0,36.0,-100.00,NNW,336,9.0,16.0,40,0.00,,,0.00,647.000000,,2013-05-26 15:12:00,
2013-05-26 11:33:00,63.0,38.0,-100.00,NW,313,7.0,14.0,39,0.00,,,0.00,781.000000,,2013-05-26 15:33:00,
2013-05-26 11:43:00,63.0,38.0,-100.00,NW,313,7.0,14.0,39,0.00,,,0.00,781.000000,,2013-05-26 15:43:00,
2013-05-26 11:53:00,63.0,38.0,-100.00,NW,313,7.0,14.0,39,0.00,,,0.00,781.000000,,2013-05-26 15:53:00,
2013-05-26 12:03:00,63.0,38.0,-100.00,NW,313,7.0,14.0,39,0.00,,,0.00,781.000000,,2013-05-26 16:03:00,
2013-05-26 12:12:00,63.0,38.0,-100.00,NW,313,7.0,14.0,39,0.00,,,0.00,781.000000,,2013-05-26 16:12:00,
2013-05-26 12:33:00,66.0,39.0,-100.00,NW,306,8.0,17.0,37,0.00,,,0.00,899.000000,,2013-05-26 16:33:00,
2013-05-26 12:42:00,66.0,39.0,-100.00,NW,306,8.0,17.0,37,0.00,,,0.00,899.000000,,2013-05-26 16:42:00,
2013-05-26 12:53:00,66.0,39.0,-100.00,NW,306,8.0,17.0,37,0.00,,,0.00,899.000000,,2013-05-26 16:53:00,
2013-05-26 13:02:00,66.0,39.0,-100.00,NW,306,8.0,17.0,37,0.00,,,0.00,899.000000,,2013-05-26 17:02:00,
2013-05-26 13:11:00,66.0,39.0,-100.00,NW,306,8.0,17.0,37,0.00,,,0.00,899.000000,,2013-05-26 17:11:00,
2013-05-26 13:32:00,69.0,37.0,-100.00,NW,307,7.0,19.0,31,0.00,,,0.00,957.000000,,2013-05-26 17:32:00,
2013-05-26 13:42:00,69.0,37.0,-100.00,NW,307,7.0,19.0,31,0.00,,,0.00,957.000000,,2013-05-26 17:42:00,
2013-05-26 13:52:00,69.0,37.0,-100.00,NW,307,7.0,19.0,31,0.00,,,0.00,957.000000,,2013-05-26 17:52:00,
2013-05-26 14:01:00,69.0,37.0,-100.00,NW,307,7.0,19.0,31,0.00,,,0.00,957.000000,,2013-05-26 18:01:00,
2013-05-26 14:12:00,69.0,37.0,-100.00,NW,307,7.0,19.0,31,0.00,,,0.00,957.000000,,2013-05-26 18:12:00,
2013-05-26 14:32:00,71.0,35.0,-100.00,NW,310,9.0,25.0,27,0.00,,,0.00,963.000000,,2013-05-26 18:32:00,
2013-05-26 14:42:00,71.0,35.0,-100.00,NW,310,9.0,25.0,27,0.00,,,0.00,963.000000,,2013-05-26 18:42:00,
2013-05-26 14:52:00,71.0,35.0,-100.00,NW,310,9.0,25.0,27,0.00,,,0.00,963.000000,,2013-05-26 18:52:00,
2013-05-26 15:01:00,71.0,35.0,-100.00,NW,310,9.0,25.0,27,0.00,,,0.00,963.000000,,2013-05-26 19:01:00,
2013-05-26 15:11:00,71.0,35.0,-100.00,NW,310,9.0,25.0,27,0.00,,,0.00,963.000000,,2013-05-26 19:11:00,
2013-05-26 15:32:00,72.0,34.0,-100.00,WNW,295,8.0,16.0,25,0.00,,,0.00,905.000000,,2013-05-26 19:32:00,
2013-05-26 15:42:00,72.0,34.0,-100.00,WNW,295,8.0,16.0,25,0.00,,,0.00,905.000000,,2013-05-26 19:42:00,
2013-05-26 15:52:00,72.0,34.0,-100.00,WNW,295,8.0,16.0,25,0.00,,,0.00,905.000000,,2013-05-26 19:52:00,
2013-05-26 16:02:00,72.0,34.0,-100.00,WNW,295,8.0,16.0,25,0.00,,,0.00,905.000000,,2013-05-26 20:02:00,
2013-05-26 16:11:00,72.0,34.0,-100.00,WNW,295,8.0,16.0,25,0.00,,,0.00,905.000000,,2013-05-26 20:11:00,
2013-05-26 16:32:00,73.0,34.0,-100.00,WNW,299,8.0,18.0,24,0.00,,,0.00,797.000000,,2013-05-26 20:32:00,
2013-05-26 16:42:00,73.0,34.0,-100.00,WNW,299,8.0,18.0,24,0.00,,,0.00,797.000000,,2013-05-26 20:42:00,
2013-05-26 16:53:00,73.0,34.0,-100.00,WNW,299,8.0,18.0,24,0.00,,,0.00,797.000000,,2013-05-26 20:53:00,
2013-05-26 17:02:00,73.0,34.0,-100.00,WNW,299,8.0,18.0,24,0.00,,,0.00,797.000000,,2013-05-26 21:02:00,
2013-05-26 17:11:00,73.0,34.0,-100.00,WNW,299,8.0,18.0,24,0.00,,,0.00,797.000000,,2013-05-26 21:11:00,
2013-05-26 17:33:00,72.0,34.0,-100.00,NW,319,9.0,17.0,25,0.00,,,0.00,646.000000,,2013-05-26 21:33:00,
2013-05-26 17:43:00,72.0,34.0,-100.00,NW,319,9.0,17.0,25,0.00,,,0.00,646.000000,,2013-05-26 21:43:00,
2013-05-26 17:53:00,72.0,34.0,-100.00,NW,319,9.0,17.0,25,0.00,,,0.00,646.000000,,2013-05-26 21:53:00,
2013-05-26 18:03:00,72.0,34.0,-100.00,NW,319,9.0,17.0,25,0.00,,,0.00,646.000000,,2013-05-26 22:03:00,
2013-05-26 18:12:00,72.0,34.0,-100.00,NW,319,9.0,17.0,25,0.00,,,0.00,646.000000,,2013-05-26 22:12:00,
2013-05-26 18:33:00,71.0,33.0,-100.00,NW,312,9.0,17.0,25,0.00,,,0.00,466.000000,,2013-05-26 22:33:00,
2013-05-26 18:42:00,71.0,33.0,-100.00,NW,312,9.0,17.0,25,0.00,,,0.00,466.000000,,2013-05-26 22:42:00,
2013-05-26 18:53:00,71.0,33.0,-100.00,NW,312,9.0,17.0,25,0.00,,,0.00,466.000000,,2013-05-26 22:53:00,
2013-05-26 19:02:00,71.0,33.0,-100.00,NW,312,9.0,17.0,25,0.00,,,0.00,466.000000,,2013-05-26 23:02:00,
2013-05-26 19:12:00,71.0,33.0,-100.00,NW,312,9.0,17.0,25,0.00,,,0.00,466.000000,,2013-05-26 23:12:00,
2013-05-26 19:32:00,69.0,34.0,-100.00,NW,319,8.0,17.0,27,0.00,,,0.00,266.000000,,2013-05-26 23:32:00,
2013-05-26 19:43:00,69.0,34.0,-100.00,NW,319,8.0,17.0,27,0.00,,,0.00,266.000000,,2013-05-26 23:43:00,
2013-05-26 19:52:00,69.0,34.0,-100.00,NW,319,8.0,17.0,27,0.00,,,0.00,266.000000,,2013-05-26 23:52:00,
2013-05-26 20:02:00,69.0,34.0,-100.00,NW,319,8.0,17.0,27,0.00,,,0.00,266.000000,,2013-05-27 00:02:00,
2013-05-26 20:11:00,69.0,34.0,-100.00,NW,319,8.0,17.0,27,0.00,,,0.00,266.000000,,2013-05-27 00:11:00,
2013-05-26 21:32:00,61.0,35.0,-100.00,West,271,1.0,8.0,37,-99.99,,,0.00,2.000000,,2013-05-27 01:32:00,
2013-05-26 21:42:00,61.0,35.0,-100.00,West,271,1.0,8.0,37,-99.99,,,0.00,2.000000,,2013-05-27 01:42:00,
2013-05-26 21:52:00,61.0,35.0,-100.00,West,271,1.0,8.0,37,-99.99,,,0.00,2.000000,,2013-05-27 01:52:00,
2013-05-26 22:02:00,61.0,35.0,-100.00,West,271,1.0,8.0,37,-99.99,,,0.00,2.000000,,2013-05-27 02:02:00,
2013-05-26 22:11:00,61.0,35.0,-100.00,West,271,1.0,8.0,37,-99.99,,,0.00,2.000000,,2013-05-27 02:11:00,
2013-05-26 22:32:00,56.0,38.0,-100.00,West,262,1.0,4.0,51,0.00,,,0.00,0.000000,,2013-05-27 02:32:00,
2013-05-26 22:43:00,56.0,38.0,-100.00,West,262,1.0,4.0,51,0.00,,,0.00,0.000000,,2013-05-27 02:43:00,
2013-05-26 22:52:00,56.0,38.0,-100.00,West,262,1.0,4.0,51,0.00,,,0.00,0.000000,,2013-05-27 02:52:00,
2013-05-26 23:02:00,56.0,38.0,-100.00,West,262,1.0,4.0,51,0.00,,,0.00,0.000000,,2013-05-27 03:02:00,
2013-05-26 23:11:00,56.0,38.0,-100.00,West,262,1.0,4.0,51,0.00,,,0.00,0.000000,,2013-05-27 03:11:00,
2013-05-26 23:33:00,53.0,39.0,-100.00,SSW,199,0.0,4.0,59,0.00,,,0.00,0.000000,,2013-05-27 03:33:00,
2013-05-26 23:43:00,53.0,39.0,-100.00,SSW,199,0.0,4.0,59,0.00,,,0.00,0.000000,,2013-05-27 03:43:00,
2013-05-26 23:53:00,53.0,39.0,-100.00,SSW,199,0.0,4.0,59,0.00,,,0.00,0.000000,,2013-05-27 03:53:00,